sensor_id;sensor_type;location;lat;lon;timestamp;P1;durP1;ratioP1;P2;durP2;ratioP2
21270;SDS011;10795;50.796;3.860;2024-01-30T00:00:34;9.95;;;6.78;;
21270;SDS011;10795;50.796;3.860;2024-01-30T00:03:02;10.65;;;7.50;;
21270;SDS011;10795;50.796;3.860;2024-01-30T00:05:33;14.50;;;7.25;;
21270;SDS011;10795;50.796;3.860;2024-01-30T00:07:59;7.40;;;5.35;;
21270;SDS011;10795;50.796;3.860;2024-01-30T00:10:25;9.30;;;5.88;;
21270;SDS011;10795;50.796;3.860;2024-01-30T00:12:53;9.70;;;7.00;;
21270;SDS011;10795;50.796;3.860;2024-01-30T00:15:21;9.95;;;6.50;;
21270;SDS011;10795;50.796;3.860;2024-01-30T00:17:48;6.20;;;4.43;;
21270;SDS011;10795;50.796;3.860;2024-01-30T00:20:17;10.57;;;7.33;;
21270;SDS011;10795;50.796;3.860;2024-01-30T00:22:45;9.65;;;7.15;;
21270;SDS011;10795;50.796;3.860;2024-01-30T00:25:11;12.93;;;7.50;;
21270;SDS011;10795;50.796;3.860;2024-01-30T00:27:37;11.38;;;6.57;;
21270;SDS011;10795;50.796;3.860;2024-01-30T00:30:05;10.88;;;6.90;;
21270;SDS011;10795;50.796;3.860;2024-01-30T00:32:33;13.93;;;7.72;;
21270;SDS011;10795;50.796;3.860;2024-01-30T00:35:01;9.57;;;7.05;;
21270;SDS011;10795;50.796;3.860;2024-01-30T00:37:31;12.68;;;7.68;;
21270;SDS011;10795;50.796;3.860;2024-01-30T00:39:57;11.35;;;7.82;;
21270;SDS011;10795;50.796;3.860;2024-01-30T00:42:25;10.10;;;7.28;;
21270;SDS011;10795;50.796;3.860;2024-01-30T00:44:53;11.20;;;7.25;;
21270;SDS011;10795;50.796;3.860;2024-01-30T00:47:19;10.10;;;7.65;;
21270;SDS011;10795;50.796;3.860;2024-01-30T00:49:45;10.38;;;7.38;;
21270;SDS011;10795;50.796;3.860;2024-01-30T00:52:11;12.43;;;7.78;;
21270;SDS011;10795;50.796;3.860;2024-01-30T00:54:39;9.55;;;7.20;;
21270;SDS011;10795;50.796;3.860;2024-01-30T00:57:05;10.70;;;7.57;;
21270;SDS011;10795;50.796;3.860;2024-01-30T00:59:30;11.10;;;7.03;;
21270;SDS011;10795;50.796;3.860;2024-01-30T01:01:58;9.48;;;6.70;;
21270;SDS011;10795;50.796;3.860;2024-01-30T01:04:24;11.43;;;7.82;;
21270;SDS011;10795;50.796;3.860;2024-01-30T01:06:54;11.77;;;7.68;;
21270;SDS011;10795;50.796;3.860;2024-01-30T01:09:20;10.80;;;7.60;;
21270;SDS011;10795;50.796;3.860;2024-01-30T01:11:49;9.90;;;7.07;;
21270;SDS011;10795;50.796;3.860;2024-01-30T01:14:15;9.90;;;6.85;;
21270;SDS011;10795;50.796;3.860;2024-01-30T01:16:44;9.17;;;6.67;;
21270;SDS011;10795;50.796;3.860;2024-01-30T01:19:12;9.20;;;6.93;;
21270;SDS011;10795;50.796;3.860;2024-01-30T01:21:44;9.95;;;6.95;;
21270;SDS011;10795;50.796;3.860;2024-01-30T01:24:12;9.80;;;6.43;;
21270;SDS011;10795;50.796;3.860;2024-01-30T01:26:43;9.30;;;6.75;;
21270;SDS011;10795;50.796;3.860;2024-01-30T01:29:09;12.50;;;7.10;;
21270;SDS011;10795;50.796;3.860;2024-01-30T01:31:39;10.38;;;6.65;;
21270;SDS011;10795;50.796;3.860;2024-01-30T01:34:11;6.80;;;5.07;;
21270;SDS011;10795;50.796;3.860;2024-01-30T01:36:38;7.25;;;5.65;;
21270;SDS011;10795;50.796;3.860;2024-01-30T01:39:05;8.52;;;6.80;;
21270;SDS011;10795;50.796;3.860;2024-01-30T01:41:31;9.32;;;6.05;;
21270;SDS011;10795;50.796;3.860;2024-01-30T01:44:00;8.30;;;5.67;;
21270;SDS011;10795;50.796;3.860;2024-01-30T01:46:30;8.52;;;6.25;;
21270;SDS011;10795;50.796;3.860;2024-01-30T01:49:01;8.30;;;5.65;;
21270;SDS011;10795;50.796;3.860;2024-01-30T01:51:31;8.07;;;5.97;;
21270;SDS011;10795;50.796;3.860;2024-01-30T01:54:03;7.22;;;4.85;;
21270;SDS011;10795;50.796;3.860;2024-01-30T01:56:30;4.95;;;3.65;;
21270;SDS011;10795;50.796;3.860;2024-01-30T01:58:59;4.32;;;3.10;;
21270;SDS011;10795;50.796;3.860;2024-01-30T02:01:32;4.22;;;3.35;;
21270;SDS011;10795;50.796;3.860;2024-01-30T02:04:00;7.40;;;4.65;;
21270;SDS011;10795;50.796;3.860;2024-01-30T02:06:28;9.02;;;5.93;;
21270;SDS011;10795;50.796;3.860;2024-01-30T02:08:57;8.63;;;6.18;;
21270;SDS011;10795;50.796;3.860;2024-01-30T02:11:26;8.10;;;6.50;;
21270;SDS011;10795;50.796;3.860;2024-01-30T02:13:55;7.97;;;6.25;;
21270;SDS011;10795;50.796;3.860;2024-01-30T02:16:27;6.80;;;5.47;;
21270;SDS011;10795;50.796;3.860;2024-01-30T02:18:55;13.40;;;6.78;;
21270;SDS011;10795;50.796;3.860;2024-01-30T02:21:23;11.65;;;7.00;;
21270;SDS011;10795;50.796;3.860;2024-01-30T02:23:49;9.45;;;6.80;;
21270;SDS011;10795;50.796;3.860;2024-01-30T02:26:19;12.00;;;6.55;;
21270;SDS011;10795;50.796;3.860;2024-01-30T02:28:47;12.82;;;6.85;;
21270;SDS011;10795;50.796;3.860;2024-01-30T02:31:15;9.93;;;6.75;;
21270;SDS011;10795;50.796;3.860;2024-01-30T02:33:43;10.00;;;6.18;;
21270;SDS011;10795;50.796;3.860;2024-01-30T02:36:09;12.30;;;7.10;;
21270;SDS011;10795;50.796;3.860;2024-01-30T02:38:37;14.70;;;7.25;;
21270;SDS011;10795;50.796;3.860;2024-01-30T02:41:03;10.75;;;6.90;;
21270;SDS011;10795;50.796;3.860;2024-01-30T02:43:31;7.03;;;5.20;;
21270;SDS011;10795;50.796;3.860;2024-01-30T02:45:57;9.50;;;6.97;;
21270;SDS011;10795;50.796;3.860;2024-01-30T02:48:26;7.30;;;4.80;;
21270;SDS011;10795;50.796;3.860;2024-01-30T02:50:51;10.30;;;7.13;;
21270;SDS011;10795;50.796;3.860;2024-01-30T02:53:17;9.43;;;7.05;;
21270;SDS011;10795;50.796;3.860;2024-01-30T02:55:48;11.88;;;7.78;;
21270;SDS011;10795;50.796;3.860;2024-01-30T02:58:13;11.93;;;6.25;;
21270;SDS011;10795;50.796;3.860;2024-01-30T03:00:44;11.18;;;7.20;;
21270;SDS011;10795;50.796;3.860;2024-01-30T03:03:17;8.98;;;6.60;;
21270;SDS011;10795;50.796;3.860;2024-01-30T03:05:45;10.38;;;7.35;;
21270;SDS011;10795;50.796;3.860;2024-01-30T03:08:10;10.38;;;6.50;;
21270;SDS011;10795;50.796;3.860;2024-01-30T03:10:41;9.52;;;7.10;;
21270;SDS011;10795;50.796;3.860;2024-01-30T03:13:07;11.07;;;6.72;;
21270;SDS011;10795;50.796;3.860;2024-01-30T03:15:33;10.07;;;5.75;;
21270;SDS011;10795;50.796;3.860;2024-01-30T03:17:58;8.30;;;6.22;;
21270;SDS011;10795;50.796;3.860;2024-01-30T03:20:27;9.80;;;6.65;;
21270;SDS011;10795;50.796;3.860;2024-01-30T03:22:53;10.10;;;7.22;;
21270;SDS011;10795;50.796;3.860;2024-01-30T03:25:20;15.45;;;6.90;;
21270;SDS011;10795;50.796;3.860;2024-01-30T03:27:48;9.90;;;6.63;;
21270;SDS011;10795;50.796;3.860;2024-01-30T03:30:14;9.43;;;7.15;;
21270;SDS011;10795;50.796;3.860;2024-01-30T03:32:42;9.68;;;6.35;;
21270;SDS011;10795;50.796;3.860;2024-01-30T03:35:09;13.15;;;6.82;;
21270;SDS011;10795;50.796;3.860;2024-01-30T03:37:37;9.50;;;6.47;;
21270;SDS011;10795;50.796;3.860;2024-01-30T03:40:02;9.73;;;6.90;;
21270;SDS011;10795;50.796;3.860;2024-01-30T03:42:31;11.63;;;6.95;;
21270;SDS011;10795;50.796;3.860;2024-01-30T03:44:57;8.68;;;6.50;;
21270;SDS011;10795;50.796;3.860;2024-01-30T03:47:22;10.18;;;6.68;;
21270;SDS011;10795;50.796;3.860;2024-01-30T03:49:48;9.43;;;6.60;;
21270;SDS011;10795;50.796;3.860;2024-01-30T03:52:14;10.65;;;6.57;;
21270;SDS011;10795;50.796;3.860;2024-01-30T03:54:40;10.30;;;7.25;;
21270;SDS011;10795;50.796;3.860;2024-01-30T03:57:08;10.57;;;6.25;;
21270;SDS011;10795;50.796;3.860;2024-01-30T03:59:34;9.35;;;5.72;;
21270;SDS011;10795;50.796;3.860;2024-01-30T04:02:00;8.90;;;6.13;;
21270;SDS011;10795;50.796;3.860;2024-01-30T04:04:26;9.35;;;5.63;;
21270;SDS011;10795;50.796;3.860;2024-01-30T04:06:51;9.73;;;6.15;;
21270;SDS011;10795;50.796;3.860;2024-01-30T04:09:17;9.73;;;6.53;;
21270;SDS011;10795;50.796;3.860;2024-01-30T04:11:48;10.73;;;6.38;;
21270;SDS011;10795;50.796;3.860;2024-01-30T04:14:13;9.40;;;6.03;;
21270;SDS011;10795;50.796;3.860;2024-01-30T04:16:41;10.50;;;6.38;;
21270;SDS011;10795;50.796;3.860;2024-01-30T04:19:07;8.98;;;6.18;;
21270;SDS011;10795;50.796;3.860;2024-01-30T04:21:35;10.95;;;6.60;;
21270;SDS011;10795;50.796;3.860;2024-01-30T04:24:01;9.70;;;6.65;;
21270;SDS011;10795;50.796;3.860;2024-01-30T04:26:29;8.45;;;6.45;;
21270;SDS011;10795;50.796;3.860;2024-01-30T04:29:00;9.00;;;6.28;;
21270;SDS011;10795;50.796;3.860;2024-01-30T04:31:28;8.13;;;6.55;;
21270;SDS011;10795;50.796;3.860;2024-01-30T04:33:53;11.23;;;6.70;;
21270;SDS011;10795;50.796;3.860;2024-01-30T04:36:19;8.85;;;6.28;;
21270;SDS011;10795;50.796;3.860;2024-01-30T04:38:45;9.95;;;5.75;;
21270;SDS011;10795;50.796;3.860;2024-01-30T04:41:10;10.48;;;6.70;;
21270;SDS011;10795;50.796;3.860;2024-01-30T04:43:38;8.73;;;5.20;;
21270;SDS011;10795;50.796;3.860;2024-01-30T04:46:06;5.97;;;4.90;;
21270;SDS011;10795;50.796;3.860;2024-01-30T04:48:34;6.82;;;5.13;;
21270;SDS011;10795;50.796;3.860;2024-01-30T04:51:03;5.03;;;3.80;;
21270;SDS011;10795;50.796;3.860;2024-01-30T04:53:32;10.55;;;6.35;;
21270;SDS011;10795;50.796;3.860;2024-01-30T04:55:58;6.68;;;5.32;;
21270;SDS011;10795;50.796;3.860;2024-01-30T04:58:23;8.88;;;5.90;;
21270;SDS011;10795;50.796;3.860;2024-01-30T05:00:53;9.63;;;6.18;;
21270;SDS011;10795;50.796;3.860;2024-01-30T05:03:22;9.02;;;6.50;;
21270;SDS011;10795;50.796;3.860;2024-01-30T05:05:53;7.25;;;5.60;;
21270;SDS011;10795;50.796;3.860;2024-01-30T05:08:19;8.93;;;6.00;;
21270;SDS011;10795;50.796;3.860;2024-01-30T05:10:47;8.38;;;5.80;;
21270;SDS011;10795;50.796;3.860;2024-01-30T05:13:13;11.75;;;6.97;;
21270;SDS011;10795;50.796;3.860;2024-01-30T05:15:41;9.20;;;6.82;;
21270;SDS011;10795;50.796;3.860;2024-01-30T05:18:07;8.43;;;6.45;;
21270;SDS011;10795;50.796;3.860;2024-01-30T05:20:32;12.43;;;6.45;;
21270;SDS011;10795;50.796;3.860;2024-01-30T05:23:01;13.85;;;7.10;;
21270;SDS011;10795;50.796;3.860;2024-01-30T05:25:28;7.53;;;5.78;;
21270;SDS011;10795;50.796;3.860;2024-01-30T05:27:56;9.43;;;6.22;;
21270;SDS011;10795;50.796;3.860;2024-01-30T05:30:22;5.40;;;3.70;;
21270;SDS011;10795;50.796;3.860;2024-01-30T05:32:53;4.70;;;4.13;;
21270;SDS011;10795;50.796;3.860;2024-01-30T05:35:21;11.13;;;6.97;;
21270;SDS011;10795;50.796;3.860;2024-01-30T05:37:49;9.60;;;6.75;;
21270;SDS011;10795;50.796;3.860;2024-01-30T05:40:15;9.00;;;6.82;;
21270;SDS011;10795;50.796;3.860;2024-01-30T05:42:41;9.85;;;5.68;;
21270;SDS011;10795;50.796;3.860;2024-01-30T05:45:07;10.30;;;6.85;;
21270;SDS011;10795;50.796;3.860;2024-01-30T05:47:36;10.48;;;7.10;;
21270;SDS011;10795;50.796;3.860;2024-01-30T05:50:02;8.80;;;5.60;;
21270;SDS011;10795;50.796;3.860;2024-01-30T05:52:33;9.07;;;6.35;;
21270;SDS011;10795;50.796;3.860;2024-01-30T05:55:01;12.05;;;6.90;;
21270;SDS011;10795;50.796;3.860;2024-01-30T05:57:30;9.30;;;6.72;;
21270;SDS011;10795;50.796;3.860;2024-01-30T05:59:56;11.23;;;6.65;;
21270;SDS011;10795;50.796;3.860;2024-01-30T06:02:22;9.13;;;7.25;;
21270;SDS011;10795;50.796;3.860;2024-01-30T06:04:50;9.32;;;6.32;;
21270;SDS011;10795;50.796;3.860;2024-01-30T06:07:18;9.60;;;6.88;;
21270;SDS011;10795;50.796;3.860;2024-01-30T06:09:44;8.75;;;6.65;;
21270;SDS011;10795;50.796;3.860;2024-01-30T06:12:11;13.32;;;6.95;;
21270;SDS011;10795;50.796;3.860;2024-01-30T06:14:37;13.52;;;7.45;;
21270;SDS011;10795;50.796;3.860;2024-01-30T06:17:03;12.23;;;7.00;;
21270;SDS011;10795;50.796;3.860;2024-01-30T06:19:30;9.77;;;7.25;;
21270;SDS011;10795;50.796;3.860;2024-01-30T06:21:58;7.85;;;5.55;;
21270;SDS011;10795;50.796;3.860;2024-01-30T06:24:24;11.48;;;7.63;;
21270;SDS011;10795;50.796;3.860;2024-01-30T06:26:53;11.60;;;7.32;;
21270;SDS011;10795;50.796;3.860;2024-01-30T06:29:21;11.57;;;7.03;;
21270;SDS011;10795;50.796;3.860;2024-01-30T06:31:47;10.02;;;7.50;;
21270;SDS011;10795;50.796;3.860;2024-01-30T06:34:13;10.68;;;6.93;;
21270;SDS011;10795;50.796;3.860;2024-01-30T06:36:39;11.75;;;7.45;;
21270;SDS011;10795;50.796;3.860;2024-01-30T06:39:04;10.85;;;7.22;;
21270;SDS011;10795;50.796;3.860;2024-01-30T06:41:31;10.25;;;7.15;;
21270;SDS011;10795;50.796;3.860;2024-01-30T06:43:58;8.85;;;6.10;;
21270;SDS011;10795;50.796;3.860;2024-01-30T06:46:24;13.18;;;7.90;;
21270;SDS011;10795;50.796;3.860;2024-01-30T06:48:50;10.57;;;6.78;;
21270;SDS011;10795;50.796;3.860;2024-01-30T06:51:16;13.73;;;7.93;;
21270;SDS011;10795;50.796;3.860;2024-01-30T06:53:44;10.48;;;6.65;;
21270;SDS011;10795;50.796;3.860;2024-01-30T06:56:10;10.20;;;7.25;;
21270;SDS011;10795;50.796;3.860;2024-01-30T06:58:38;14.35;;;8.02;;
21270;SDS011;10795;50.796;3.860;2024-01-30T07:01:06;13.18;;;8.10;;
21270;SDS011;10795;50.796;3.860;2024-01-30T07:03:32;9.68;;;7.20;;
21270;SDS011;10795;50.796;3.860;2024-01-30T07:05:58;10.38;;;7.47;;
21270;SDS011;10795;50.796;3.860;2024-01-30T07:08:24;8.30;;;6.28;;
21270;SDS011;10795;50.796;3.860;2024-01-30T07:10:49;11.75;;;7.03;;
21270;SDS011;10795;50.796;3.860;2024-01-30T07:13:15;10.30;;;7.13;;
21270;SDS011;10795;50.796;3.860;2024-01-30T07:15:46;10.48;;;6.47;;
21270;SDS011;10795;50.796;3.860;2024-01-30T07:18:17;10.52;;;7.18;;
21270;SDS011;10795;50.796;3.860;2024-01-30T07:20:42;11.18;;;7.50;;
21270;SDS011;10795;50.796;3.860;2024-01-30T07:23:16;12.75;;;7.78;;
21270;SDS011;10795;50.796;3.860;2024-01-30T07:25:45;8.57;;;5.88;;
21270;SDS011;10795;50.796;3.860;2024-01-30T07:28:14;12.85;;;7.57;;
21270;SDS011;10795;50.796;3.860;2024-01-30T07:30:42;13.45;;;7.40;;
21270;SDS011;10795;50.796;3.860;2024-01-30T07:33:08;14.23;;;7.18;;
21270;SDS011;10795;50.796;3.860;2024-01-30T07:35:34;12.80;;;6.78;;
21270;SDS011;10795;50.796;3.860;2024-01-30T07:38:01;11.13;;;7.20;;
21270;SDS011;10795;50.796;3.860;2024-01-30T07:40:30;10.63;;;7.82;;
21270;SDS011;10795;50.796;3.860;2024-01-30T07:42:56;9.82;;;5.47;;
21270;SDS011;10795;50.796;3.860;2024-01-30T07:45:24;10.30;;;6.32;;
21270;SDS011;10795;50.796;3.860;2024-01-30T07:47:52;11.45;;;7.22;;
21270;SDS011;10795;50.796;3.860;2024-01-30T07:50:17;10.70;;;7.50;;
21270;SDS011;10795;50.796;3.860;2024-01-30T07:52:44;13.05;;;7.90;;
21270;SDS011;10795;50.796;3.860;2024-01-30T07:55:10;12.02;;;6.57;;
21270;SDS011;10795;50.796;3.860;2024-01-30T07:57:38;14.30;;;7.57;;
21270;SDS011;10795;50.796;3.860;2024-01-30T08:00:06;12.02;;;7.35;;
21270;SDS011;10795;50.796;3.860;2024-01-30T08:02:34;14.57;;;8.35;;
21270;SDS011;10795;50.796;3.860;2024-01-30T08:05:02;12.20;;;7.60;;
21270;SDS011;10795;50.796;3.860;2024-01-30T08:07:28;11.95;;;7.43;;
21270;SDS011;10795;50.796;3.860;2024-01-30T08:09:55;11.07;;;7.55;;
21270;SDS011;10795;50.796;3.860;2024-01-30T08:12:24;14.48;;;7.85;;
21270;SDS011;10795;50.796;3.860;2024-01-30T08:14:49;9.90;;;6.82;;
21270;SDS011;10795;50.796;3.860;2024-01-30T08:17:15;12.68;;;7.50;;
21270;SDS011;10795;50.796;3.860;2024-01-30T08:19:43;12.23;;;8.05;;
21270;SDS011;10795;50.796;3.860;2024-01-30T08:22:09;13.60;;;8.25;;
21270;SDS011;10795;50.796;3.860;2024-01-30T08:24:37;15.10;;;8.50;;
21270;SDS011;10795;50.796;3.860;2024-01-30T08:27:05;13.48;;;7.95;;
21270;SDS011;10795;50.796;3.860;2024-01-30T08:29:31;14.25;;;8.57;;
21270;SDS011;10795;50.796;3.860;2024-01-30T08:32:00;12.60;;;8.48;;
21270;SDS011;10795;50.796;3.860;2024-01-30T08:34:26;14.43;;;8.05;;
21270;SDS011;10795;50.796;3.860;2024-01-30T08:36:52;15.63;;;8.20;;
21270;SDS011;10795;50.796;3.860;2024-01-30T08:39:20;11.60;;;7.60;;
21270;SDS011;10795;50.796;3.860;2024-01-30T08:41:46;14.43;;;7.85;;
21270;SDS011;10795;50.796;3.860;2024-01-30T08:44:15;12.40;;;7.70;;
21270;SDS011;10795;50.796;3.860;2024-01-30T08:46:40;13.95;;;8.65;;
21270;SDS011;10795;50.796;3.860;2024-01-30T08:49:07;19.33;;;8.82;;
21270;SDS011;10795;50.796;3.860;2024-01-30T08:51:33;15.75;;;8.68;;
21270;SDS011;10795;50.796;3.860;2024-01-30T08:53:59;15.48;;;8.68;;
21270;SDS011;10795;50.796;3.860;2024-01-30T08:56:27;13.32;;;8.23;;
21270;SDS011;10795;50.796;3.860;2024-01-30T08:58:55;16.30;;;7.90;;
21270;SDS011;10795;50.796;3.860;2024-01-30T09:01:26;14.02;;;8.13;;
21270;SDS011;10795;50.796;3.860;2024-01-30T09:03:54;12.68;;;8.82;;
21270;SDS011;10795;50.796;3.860;2024-01-30T09:06:19;16.40;;;9.18;;
21270;SDS011;10795;50.796;3.860;2024-01-30T09:08:47;14.68;;;9.35;;
21270;SDS011;10795;50.796;3.860;2024-01-30T09:11:13;20.48;;;9.73;;
21270;SDS011;10795;50.796;3.860;2024-01-30T09:13:40;16.73;;;9.55;;
21270;SDS011;10795;50.796;3.860;2024-01-30T09:16:06;15.27;;;9.32;;
21270;SDS011;10795;50.796;3.860;2024-01-30T09:18:32;21.45;;;11.98;;
21270;SDS011;10795;50.796;3.860;2024-01-30T09:20:58;20.38;;;10.65;;
21270;SDS011;10795;50.796;3.860;2024-01-30T09:23:24;18.67;;;10.05;;
21270;SDS011;10795;50.796;3.860;2024-01-30T09:25:55;17.58;;;9.60;;
21270;SDS011;10795;50.796;3.860;2024-01-30T09:28:21;16.95;;;8.75;;
21270;SDS011;10795;50.796;3.860;2024-01-30T09:30:48;19.98;;;8.93;;
21270;SDS011;10795;50.796;3.860;2024-01-30T09:33:14;11.23;;;6.20;;
21270;SDS011;10795;50.796;3.860;2024-01-30T09:35:40;13.70;;;6.72;;
21270;SDS011;10795;50.796;3.860;2024-01-30T09:38:08;9.05;;;4.45;;
21270;SDS011;10795;50.796;3.860;2024-01-30T09:40:34;14.82;;;4.55;;
21270;SDS011;10795;50.796;3.860;2024-01-30T09:43:00;12.05;;;4.00;;
21270;SDS011;10795;50.796;3.860;2024-01-30T09:45:26;9.98;;;3.25;;
21270;SDS011;10795;50.796;3.860;2024-01-30T09:47:52;6.78;;;2.63;;
21270;SDS011;10795;50.796;3.860;2024-01-30T09:50:18;4.55;;;1.92;;
21270;SDS011;10795;50.796;3.860;2024-01-30T09:52:45;5.85;;;2.45;;
21270;SDS011;10795;50.796;3.860;2024-01-30T09:55:11;8.15;;;2.17;;
21270;SDS011;10795;50.796;3.860;2024-01-30T09:57:38;6.93;;;1.98;;
21270;SDS011;10795;50.796;3.860;2024-01-30T10:00:04;5.07;;;2.00;;
21270;SDS011;10795;50.796;3.860;2024-01-30T10:02:40;6.20;;;2.00;;
21270;SDS011;10795;50.796;3.860;2024-01-30T10:05:07;6.00;;;1.55;;
21270;SDS011;10795;50.796;3.860;2024-01-30T10:07:33;6.50;;;1.63;;
21270;SDS011;10795;50.796;3.860;2024-01-30T10:10:01;6.07;;;1.90;;
21270;SDS011;10795;50.796;3.860;2024-01-30T10:12:27;9.00;;;2.03;;
21270;SDS011;10795;50.796;3.860;2024-01-30T10:14:55;4.82;;;1.30;;
21270;SDS011;10795;50.796;3.860;2024-01-30T10:17:26;5.40;;;1.73;;
21270;SDS011;10795;50.796;3.860;2024-01-30T10:19:52;8.45;;;1.80;;
21270;SDS011;10795;50.796;3.860;2024-01-30T10:22:18;4.97;;;1.27;;
21270;SDS011;10795;50.796;3.860;2024-01-30T10:24:44;7.03;;;1.20;;
21270;SDS011;10795;50.796;3.860;2024-01-30T10:27:12;3.58;;;0.98;;
21270;SDS011;10795;50.796;3.860;2024-01-30T10:29:43;6.03;;;1.25;;
21270;SDS011;10795;50.796;3.860;2024-01-30T10:32:13;4.03;;;1.27;;
21270;SDS011;10795;50.796;3.860;2024-01-30T10:34:42;4.18;;;1.50;;
21270;SDS011;10795;50.796;3.860;2024-01-30T10:37:09;3.70;;;1.23;;
21270;SDS011;10795;50.796;3.860;2024-01-30T10:39:38;1.95;;;1.10;;
21270;SDS011;10795;50.796;3.860;2024-01-30T10:42:10;2.45;;;0.60;;
21270;SDS011;10795;50.796;3.860;2024-01-30T10:47:27;3.20;;;0.50;;
21270;SDS011;10795;50.796;3.860;2024-01-30T10:49:59;2.55;;;0.60;;
21270;SDS011;10795;50.796;3.860;2024-01-30T10:52:29;2.88;;;0.50;;
21270;SDS011;10795;50.796;3.860;2024-01-30T10:54:55;1.88;;;0.50;;
21270;SDS011;10795;50.796;3.860;2024-01-30T10:57:24;0.68;;;0.38;;
21270;SDS011;10795;50.796;3.860;2024-01-30T10:59:58;1.25;;;0.45;;
21270;SDS011;10795;50.796;3.860;2024-01-30T11:02:30;6.35;;;0.50;;
21270;SDS011;10795;50.796;3.860;2024-01-30T11:04:59;1.83;;;0.40;;
21270;SDS011;10795;50.796;3.860;2024-01-30T11:07:26;2.93;;;0.60;;
21270;SDS011;10795;50.796;3.860;2024-01-30T11:09:53;2.83;;;0.50;;
21270;SDS011;10795;50.796;3.860;2024-01-30T11:12:40;5.47;;;0.68;;
21270;SDS011;10795;50.796;3.860;2024-01-30T11:15:13;1.85;;;0.50;;
21270;SDS011;10795;50.796;3.860;2024-01-30T11:20:14;1.85;;;0.60;;
21270;SDS011;10795;50.796;3.860;2024-01-30T11:22:55;4.85;;;0.55;;
21270;SDS011;10795;50.796;3.860;2024-01-30T11:25:22;5.38;;;0.70;;
21270;SDS011;10795;50.796;3.860;2024-01-30T11:27:49;1.75;;;0.57;;
21270;SDS011;10795;50.796;3.860;2024-01-30T11:30:26;5.50;;;0.70;;
21270;SDS011;10795;50.796;3.860;2024-01-30T11:33:03;4.28;;;0.60;;
21270;SDS011;10795;50.796;3.860;2024-01-30T11:35:39;2.53;;;0.90;;
21270;SDS011;10795;50.796;3.860;2024-01-30T11:38:10;4.32;;;0.60;;
21270;SDS011;10795;50.796;3.860;2024-01-30T11:40:38;2.53;;;0.43;;
21270;SDS011;10795;50.796;3.860;2024-01-30T11:43:07;3.90;;;0.80;;
21270;SDS011;10795;50.796;3.860;2024-01-30T11:45:37;1.98;;;0.70;;
21270;SDS011;10795;50.796;3.860;2024-01-30T11:48:04;3.15;;;0.82;;
21270;SDS011;10795;50.796;3.860;2024-01-30T11:50:33;4.43;;;0.40;;
21270;SDS011;10795;50.796;3.860;2024-01-30T11:53:01;3.92;;;0.43;;
21270;SDS011;10795;50.796;3.860;2024-01-30T11:55:29;3.30;;;0.70;;
21270;SDS011;10795;50.796;3.860;2024-01-30T11:57:56;1.42;;;0.50;;
21270;SDS011;10795;50.796;3.860;2024-01-30T12:00:25;2.47;;;0.50;;
21270;SDS011;10795;50.796;3.860;2024-01-30T12:02:51;4.15;;;0.47;;
21270;SDS011;10795;50.796;3.860;2024-01-30T12:05:27;3.30;;;1.10;;
21270;SDS011;10795;50.796;3.860;2024-01-30T12:07:53;5.35;;;0.80;;
21270;SDS011;10795;50.796;3.860;2024-01-30T12:10:23;3.53;;;0.63;;
21270;SDS011;10795;50.796;3.860;2024-01-30T12:12:52;2.15;;;0.40;;
21270;SDS011;10795;50.796;3.860;2024-01-30T12:15:21;5.53;;;0.70;;
21270;SDS011;10795;50.796;3.860;2024-01-30T12:17:47;2.65;;;0.70;;
21270;SDS011;10795;50.796;3.860;2024-01-30T12:20:13;3.33;;;0.60;;
21270;SDS011;10795;50.796;3.860;2024-01-30T12:22:43;2.83;;;0.55;;
21270;SDS011;10795;50.796;3.860;2024-01-30T12:25:14;3.08;;;0.50;;
21270;SDS011;10795;50.796;3.860;2024-01-30T12:27:45;4.95;;;0.52;;
21270;SDS011;10795;50.796;3.860;2024-01-30T12:30:15;1.70;;;0.50;;
21270;SDS011;10795;50.796;3.860;2024-01-30T12:32:43;3.67;;;0.80;;
21270;SDS011;10795;50.796;3.860;2024-01-30T12:35:13;2.97;;;0.40;;
21270;SDS011;10795;50.796;3.860;2024-01-30T12:37:48;1.83;;;0.50;;
21270;SDS011;10795;50.796;3.860;2024-01-30T12:40:14;3.33;;;0.63;;
21270;SDS011;10795;50.796;3.860;2024-01-30T12:42:46;2.67;;;0.63;;
21270;SDS011;10795;50.796;3.860;2024-01-30T12:45:15;3.75;;;0.68;;
21270;SDS011;10795;50.796;3.860;2024-01-30T12:47:41;3.58;;;0.40;;
21270;SDS011;10795;50.796;3.860;2024-01-30T12:50:10;2.88;;;0.60;;
21270;SDS011;10795;50.796;3.860;2024-01-30T12:55:05;3.58;;;0.90;;
21270;SDS011;10795;50.796;3.860;2024-01-30T12:57:33;3.92;;;0.60;;
21270;SDS011;10795;50.796;3.860;2024-01-30T13:00:01;4.20;;;0.50;;
21270;SDS011;10795;50.796;3.860;2024-01-30T13:02:27;4.80;;;0.80;;
21270;SDS011;10795;50.796;3.860;2024-01-30T13:05:00;3.80;;;1.00;;
21270;SDS011;10795;50.796;3.860;2024-01-30T13:07:28;2.90;;;0.65;;
21270;SDS011;10795;50.796;3.860;2024-01-30T13:09:56;6.03;;;0.98;;
21270;SDS011;10795;50.796;3.860;2024-01-30T13:12:30;6.78;;;0.70;;
21270;SDS011;10795;50.796;3.860;2024-01-30T13:14:59;1.52;;;0.63;;
21270;SDS011;10795;50.796;3.860;2024-01-30T13:17:26;4.85;;;0.70;;
21270;SDS011;10795;50.796;3.860;2024-01-30T13:19:52;2.47;;;0.73;;
21270;SDS011;10795;50.796;3.860;2024-01-30T13:22:19;2.45;;;0.80;;
21270;SDS011;10795;50.796;3.860;2024-01-30T13:24:50;4.78;;;0.90;;
21270;SDS011;10795;50.796;3.860;2024-01-30T13:27:16;2.05;;;0.65;;
21270;SDS011;10795;50.796;3.860;2024-01-30T13:29:42;2.85;;;0.60;;
21270;SDS011;10795;50.796;3.860;2024-01-30T13:32:08;5.22;;;0.60;;
21270;SDS011;10795;50.796;3.860;2024-01-30T13:34:36;3.35;;;0.57;;
21270;SDS011;10795;50.796;3.860;2024-01-30T13:37:04;1.33;;;0.80;;
21270;SDS011;10795;50.796;3.860;2024-01-30T13:39:30;1.60;;;0.70;;
21270;SDS011;10795;50.796;3.860;2024-01-30T13:41:56;1.80;;;0.70;;
21270;SDS011;10795;50.796;3.860;2024-01-30T13:44:27;2.20;;;0.50;;
21270;SDS011;10795;50.796;3.860;2024-01-30T13:46:52;2.45;;;0.50;;
21270;SDS011;10795;50.796;3.860;2024-01-30T13:49:22;2.15;;;0.63;;
21270;SDS011;10795;50.796;3.860;2024-01-30T13:51:52;3.60;;;0.88;;
21270;SDS011;10795;50.796;3.860;2024-01-30T13:54:20;2.58;;;0.65;;
21270;SDS011;10795;50.796;3.860;2024-01-30T13:56:48;2.35;;;0.77;;
21270;SDS011;10795;50.796;3.860;2024-01-30T13:59:14;2.05;;;0.57;;
21270;SDS011;10795;50.796;3.860;2024-01-30T14:01:40;3.65;;;0.68;;
21270;SDS011;10795;50.796;3.860;2024-01-30T14:04:05;1.27;;;0.50;;
21270;SDS011;10795;50.796;3.860;2024-01-30T14:06:32;2.50;;;0.50;;
21270;SDS011;10795;50.796;3.860;2024-01-30T14:09:00;2.97;;;0.50;;
21270;SDS011;10795;50.796;3.860;2024-01-30T14:11:25;1.95;;;0.45;;
21270;SDS011;10795;50.796;3.860;2024-01-30T14:13:53;1.73;;;0.80;;
21270;SDS011;10795;50.796;3.860;2024-01-30T14:16:24;3.78;;;0.80;;
21270;SDS011;10795;50.796;3.860;2024-01-30T14:18:56;2.35;;;0.43;;
21270;SDS011;10795;50.796;3.860;2024-01-30T14:21:24;5.53;;;0.82;;
21270;SDS011;10795;50.796;3.860;2024-01-30T14:23:49;4.05;;;0.50;;
21270;SDS011;10795;50.796;3.860;2024-01-30T14:26:17;3.15;;;0.50;;
21270;SDS011;10795;50.796;3.860;2024-01-30T14:28:46;3.92;;;0.70;;
21270;SDS011;10795;50.796;3.860;2024-01-30T14:31:14;2.70;;;0.80;;
21270;SDS011;10795;50.796;3.860;2024-01-30T14:33:39;3.78;;;0.60;;
21270;SDS011;10795;50.796;3.860;2024-01-30T14:36:05;1.73;;;0.65;;
21270;SDS011;10795;50.796;3.860;2024-01-30T14:38:35;4.40;;;0.70;;
21270;SDS011;10795;50.796;3.860;2024-01-30T14:41:03;1.67;;;0.60;;
21270;SDS011;10795;50.796;3.860;2024-01-30T14:43:31;1.83;;;0.50;;
21270;SDS011;10795;50.796;3.860;2024-01-30T14:45:59;3.63;;;0.70;;
21270;SDS011;10795;50.796;3.860;2024-01-30T14:48:25;2.17;;;0.70;;
21270;SDS011;10795;50.796;3.860;2024-01-30T14:50:51;0.77;;;0.50;;
21270;SDS011;10795;50.796;3.860;2024-01-30T14:53:17;2.42;;;0.80;;